Bavaria

Go HERE for most recent data if this page is not up to date.

Jump to table bottom
Date Time Temp F RH % AVG Wind Max Wind Wind Dir 24 Snow Depth
04/13 18:00 43.4 47 1 6 S - 158 0.0 50.0
04/13 17:00 41.4 54 1 6 W - 276 -0.0 49.8
04/13 16:00 38.4 61 3 11 NW - 318 -0.3 49.5
04/13 15:00 50.9 31 2 6 S - 199 -0.3 49.7
04/13 14:00 50.4 32 2 5 W - 287 -0.4 49.6
04/13 13:00 51.9 31 2 8 SW - 247 -0.4 50.2
04/13 12:00 51.8 33 2 9 SW - 214 -0.3 50.6
04/13 11:00 50.9 33 2 6 W - 269 -0.3 50.9
04/13 10:00 47.5 40 1 5 W - 259 -0.0 51.7
04/13 09:00 43.7 47 0 3 NW - 305 0.2 51.9
04/13 08:00 37.3 56 2 5 SW - 245 0.2 51.9
04/13 07:00 36.0 59 4 10 W - 279 0.2 51.8
04/13 06:00 36.0 60 9 12 W - 274 0.1 51.6
04/13 05:00 36.0 60 6 12 NW - 312 0.0 51.6
04/13 04:00 39.8 47 2 5 W - 251 0.1 51.9
04/13 03:00 39.0 46 0 5 SW - 213 0.1 51.8
04/13 02:00 40.3 42 3 9 W - 280 0.2 51.9
04/13 01:00 40.2 46 2 9 W - 286 0.2 51.9
04/13 00:00 35.8 69 2 8 W - 261 0.1 51.5
04/12 23:00 35.2 71 2 7 SW - 209 0.1 51.5
04/12 22:00 33.9 75 2 11 E - 80 0.0 51.6
04/12 21:00 39.9 53 1 6 S - 174 0.2 51.5
04/12 20:00 40.4 48 2 4 W - 269 0.1 51.5
04/12 19:00 41.5 46 2 7 W - 252 0.0 51.3
04/12 18:00 44.0 41 3 5 S - 167 -0.0 51.4
04/12 17:00 47.1 32 3 6 SW - 228 -0.0 51.3
04/12 16:00 48.8 29 3 6 S - 195 -0.2 51.8
04/12 15:00 47.3 33 3 9 SW - 213 -0.2 52.4
04/12 14:00 48.8 33 3 8 SW - 231 -0.0 52.6
04/12 13:00 45.5 37 4 8 SW - 230 -0.2 52.9
04/12 12:00 47.4 33 4 7 SW - 212 -0.2 53.5
04/12 11:00 46.4 35 3 9 SW - 205 -0.2 54.0
04/12 10:00 44.9 36 3 9 SW - 209 -0.0 54.1
04/12 09:00 40.7 43 3 8 N - 353 0.2 54.5
04/12 08:00 37.4 47 2 7 SW - 241 0.2 54.5
04/12 07:00 35.8 51 2 6 SW - 237 0.2 54.5
04/12 06:00 35.1 53 2 12 SE - 144 0.2 54.4
04/12 05:00 35.4 56 2 5 W - 284 0.2 54.5
04/12 04:00 34.7 57 2 7 W - 254 0.2 54.5
04/12 03:00 33.9 54 3 9 SW - 206 0.2 54.3
04/12 02:00 35.1 52 3 8 S - 179 0.2 54.4
04/12 01:00 34.9 51 2 6 SW - 219 0.2 54.4
04/12 00:00 33.7 52 3 6 SW - 236 0.1 54.3
.